Time;durP1;ratioP1;P1;durP2;ratioP2;P2;SDS_P1;SDS_P2;PMS_P1;PMS_P2;Temp;Humidity;BMP_temperature;BMP_pressure;BME280_temperature;BME280_humidity;BME280_pressure;Samples;Min_cycle;Max_cycle;Signal;HPM_P1;HPM_P2
2022/06/10 00:00:23;;;;;;;17.25;9.13;;;;;;;18.98;92.39;99399.97;5066044;28;20056;-74
2022/06/10 00:03:02;;;;;;;17.75;10.10;;;;;;;18.84;94.57;99412.25;5071478;28;20048;-74
2022/06/10 00:05:36;;;;;;;15.25;10.52;;;;;;;18.85;95.54;99408.50;5069945;28;20044;-74
2022/06/10 00:08:08;;;;;;;17.58;10.10;;;;;;;18.91;95.49;99404.25;5070527;28;20116;-75
2022/06/10 00:10:37;;;;;;;16.23;11.20;;;;;;;18.92;96.82;99406.00;5069892;28;20037;-75
2022/06/10 00:13:05;;;;;;;17.50;11.65;;;;;;;18.92;98.32;99406.00;5070591;27;20065;-74
2022/06/10 00:15:33;;;;;;;16.48;11.40;;;;;;;18.80;100.00;99414.41;5070363;28;20044;-74
2022/06/10 00:18:02;;;;;;;17.38;11.75;;;;;;;18.92;100.00;99411.47;5069744;28;20040;-74
2022/06/10 00:20:32;;;;;;;17.92;13.25;;;;;;;18.89;100.00;99403.56;5070849;28;20127;-74
2022/06/10 00:22:59;;;;;;;19.83;13.45;;;;;;;18.99;100.00;99403.56;5069655;28;20044;-74
2022/06/10 00:25:28;;;;;;;19.38;14.30;;;;;;;19.03;100.00;99407.69;5068759;28;20047;-75
2022/06/10 00:27:57;;;;;;;17.95;13.90;;;;;;;19.08;100.00;99411.72;5070145;28;20044;-75
2022/06/10 00:30:28;;;;;;;17.80;13.77;;;;;;;19.10;100.00;99415.16;5069926;28;20575;-75
2022/06/10 00:32:57;;;;;;;21.05;13.55;;;;;;;19.11;100.00;99405.06;5071020;28;20049;-75
2022/06/10 00:35:24;;;;;;;18.90;14.45;;;;;;;18.95;100.00;99411.16;5070222;28;20047;-74
2022/06/10 00:37:52;;;;;;;21.30;14.45;;;;;;;18.80;100.00;99417.13;5070105;28;20452;-74
2022/06/10 00:40:24;;;;;;;19.65;14.02;;;;;;;18.98;100.00;99419.13;5059896;28;20052;-74
2022/06/10 00:42:54;;;;;;;17.65;13.50;;;;;;;18.81;100.00;99418.00;5051322;28;20390;-74
2022/06/10 00:45:53;;;;;;;20.95;13.77;;;;;;;18.89;100.00;99412.63;5050010;28;20056;-74
2022/06/10 00:48:25;;;;;;;18.25;13.73;;;;;;;18.91;100.00;99420.69;5050607;28;20051;-75
2022/06/10 00:50:54;;;;;;;20.02;14.82;;;;;;;18.80;100.00;99425.34;5051242;28;20045;-74
2022/06/10 00:53:26;;;;;;;18.98;14.43;;;;;;;18.76;100.00;99425.78;5049840;28;20491;-74
2022/06/10 00:55:56;;;;;;;20.17;14.15;;;;;;;18.74;100.00;99422.34;5049935;28;20045;-74
2022/06/10 00:58:29;;;;;;;21.85;15.00;;;;;;;18.58;100.00;99412.06;5051749;28;20041;-75
2022/06/10 01:01:00;;;;;;;19.42;14.85;;;;;;;18.53;100.00;99413.34;5054596;28;20410;-74
2022/06/10 01:03:27;;;;;;;19.35;14.60;;;;;;;18.62;100.00;99422.53;5054805;28;20454;-74
2022/06/10 01:05:55;;;;;;;20.33;15.15;;;;;;;18.57;100.00;99424.00;5053077;28;20067;-75
2022/06/10 01:08:24;;;;;;;20.13;15.18;;;;;;;18.75;100.00;99427.66;5053482;28;20052;-75
2022/06/10 01:11:03;;;;;;;19.63;14.60;;;;;;;18.81;100.00;99429.81;5053181;28;20602;-74
2022/06/10 01:13:39;;;;;;;19.42;13.90;;;;;;;18.42;100.00;99426.34;5054734;28;20048;-74
2022/06/10 01:16:14;;;;;;;21.08;14.35;;;;;;;18.46;100.00;99420.41;5054471;28;20113;-75
2022/06/10 01:18:48;;;;;;;20.60;14.77;;;;;;;18.53;100.00;99435.22;5054797;28;20045;-74
2022/06/10 01:21:46;;;;;;;20.05;14.90;;;;;;;18.38;100.00;99436.69;5053467;28;20098;-74
2022/06/10 01:24:32;;;;;;;22.08;16.02;;;;;;;18.59;100.00;99438.38;5048265;28;20060;-75
2022/06/10 01:30:22;;;;;;;20.23;15.43;;;;;;;18.41;100.00;99436.41;5052944;28;20045;-74
2022/06/10 01:33:02;;;;;;;20.40;15.40;;;;;;;18.45;100.00;99440.56;5054572;28;20372;-75
2022/06/10 01:35:37;;;;;;;21.42;15.25;;;;;;;18.49;100.00;99439.25;5054239;28;20047;-74
2022/06/10 01:38:09;;;;;;;19.60;15.17;;;;;;;18.48;100.00;99440.25;5055201;28;20124;-74
2022/06/10 01:40:45;;;;;;;20.30;15.25;;;;;;;18.35;100.00;99439.72;5062686;28;20055;-74
2022/06/10 01:43:19;;;;;;;18.50;14.63;;;;;;;18.44;100.00;99444.31;5053322;28;20131;-74
2022/06/10 01:45:51;;;;;;;20.27;14.90;;;;;;;18.42;100.00;99438.13;5052993;28;20045;-74
2022/06/10 01:48:23;;;;;;;18.83;14.45;;;;;;;18.34;100.00;99452.50;5053621;28;20460;-74
2022/06/10 01:50:55;;;;;;;19.15;14.23;;;;;;;18.37;100.00;99445.91;5054248;28;20052;-74
2022/06/10 01:53:26;;;;;;;19.50;14.30;;;;;;;18.31;100.00;99441.88;5052949;27;20136;-74
2022/06/10 01:55:58;;;;;;;19.13;14.13;;;;;;;18.30;100.00;99445.63;5052808;28;20041;-74
2022/06/10 01:58:28;;;;;;;18.58;14.00;;;;;;;18.28;100.00;99447.63;5053165;27;20067;-75
2022/06/10 02:00:59;;;;;;;18.95;13.43;;;;;;;18.21;100.00;99451.97;5053056;28;20049;-74
2022/06/10 02:03:31;;;;;;;17.30;13.20;;;;;;;18.11;100.00;99460.16;5054276;28;20124;-74
2022/06/10 02:06:02;;;;;;;20.88;13.25;;;;;;;18.14;100.00;99459.88;5052164;28;20049;-74
2022/06/10 02:08:32;;;;;;;17.73;12.95;;;;;;;18.12;100.00;99456.41;5052261;28;20098;-74
2022/06/10 02:11:05;;;;;;;19.15;13.25;;;;;;;18.03;100.00;99468.22;5052517;28;20052;-74
2022/06/10 02:13:40;;;;;;;17.20;13.05;;;;;;;17.83;100.00;99470.94;5053472;28;20056;-74
2022/06/10 02:16:10;;;;;;;20.95;13.02;;;;;;;17.77;100.00;99466.88;5054099;28;20061;-74
2022/06/10 02:18:43;;;;;;;18.27;13.05;;;;;;;17.74;100.00;99460.84;5070674;28;20044;-74
2022/06/10 02:21:15;;;;;;;21.08;13.65;;;;;;;17.69;100.00;99474.06;5072091;28;20083;-74
2022/06/10 02:23:46;;;;;;;20.02;13.20;;;;;;;17.54;100.00;99482.66;5072095;28;20065;-74
2022/06/10 02:26:15;;;;;;;18.30;13.55;;;;;;;17.46;100.00;99466.13;5073104;28;20052;-74
2022/06/10 02:28:46;;;;;;;17.85;12.93;;;;;;;17.66;100.00;99467.88;5071282;28;20112;-74
2022/06/10 02:31:17;;;;;;;18.25;13.02;;;;;;;17.60;100.00;99476.63;5071829;28;20059;-74
2022/06/10 02:33:48;;;;;;;19.00;13.05;;;;;;;17.21;100.00;99479.25;5071415;28;20155;-74
2022/06/10 02:36:21;;;;;;;20.00;13.35;;;;;;;17.37;100.00;99476.88;5072744;28;20067;-74
2022/06/10 02:38:56;;;;;;;22.40;13.45;;;;;;;17.51;100.00;99482.94;5073193;28;20051;-74
2022/06/10 02:41:30;;;;;;;17.77;13.38;;;;;;;17.60;100.00;99471.16;5053733;28;20045;-74
2022/06/10 02:44:02;;;;;;;18.70;14.63;;;;;;;17.55;100.00;99475.34;5051560;28;20116;-75
2022/06/10 02:46:34;;;;;;;20.63;14.43;;;;;;;17.59;100.00;99482.25;5052147;28;20518;-74
2022/06/10 02:49:07;;;;;;;18.15;14.52;;;;;;;17.38;100.00;99478.63;5052338;28;20470;-74
2022/06/10 02:51:35;;;;;;;19.80;14.25;;;;;;;17.35;100.00;99478.88;5053024;28;20052;-75
2022/06/10 02:54:06;;;;;;;24.23;15.80;;;;;;;17.20;100.00;99478.41;5051707;27;20055;-73
2022/06/10 02:56:34;;;;;;;22.35;14.40;;;;;;;17.27;100.00;99475.13;5051755;28;20438;-74
2022/06/10 03:01:55;;;;;;;22.20;15.93;;;;;;;17.32;100.00;99468.22;5071913;28;20048;-75
2022/06/10 03:04:33;;;;;;;19.58;14.50;;;;;;;17.32;100.00;99481.88;5072468;28;20045;-74
2022/06/10 03:07:12;;;;;;;21.83;15.13;;;;;;;17.07;100.00;99480.50;5072057;28;20060;-75
2022/06/10 03:09:50;;;;;;;20.02;15.57;;;;;;;17.13;100.00;99490.00;5072399;28;20049;-75
2022/06/10 03:12:23;;;;;;;20.27;15.48;;;;;;;17.13;100.00;99496.31;5072323;28;20108;-74
2022/06/10 03:15:02;;;;;;;19.95;15.73;;;;;;;17.29;100.00;99494.94;5072532;28;20053;-74
2022/06/10 03:17:34;;;;;;;24.60;17.52;;;;;;;17.20;100.00;99496.63;5072763;28;20055;-75
2022/06/10 03:20:09;;;;;;;32.53;17.63;;;;;;;17.13;100.00;99500.91;5072356;28;20040;-74
2022/06/10 03:22:51;;;;;;;23.23;17.50;;;;;;;17.17;100.00;99494.19;5071225;28;20455;-74
2022/06/10 03:25:21;;;;;;;23.13;17.77;;;;;;;17.27;100.00;99499.69;5071512;28;20044;-74
2022/06/10 03:27:53;;;;;;;24.02;17.30;;;;;;;17.19;100.00;99501.25;5071678;28;20123;-74
2022/06/10 03:30:25;;;;;;;24.27;17.85;;;;;;;17.19;100.00;99494.91;5071938;28;20123;-74
2022/06/10 03:32:57;;;;;;;24.65;17.92;;;;;;;17.21;100.00;99503.81;5072396;28;20041;-74
2022/06/10 03:35:30;;;;;;;23.90;18.08;;;;;;;17.47;100.00;99498.72;5072613;28;20048;-74
2022/06/10 03:37:58;;;;;;;21.30;16.90;;;;;;;17.59;100.00;99507.66;5071190;28;20053;-74
2022/06/10 03:40:29;;;;;;;22.33;16.42;;;;;;;17.77;100.00;99504.28;5050768;28;20041;-74
2022/06/10 03:42:58;;;;;;;20.48;15.90;;;;;;;17.85;100.00;99501.69;5051600;28;20076;-74
2022/06/10 03:45:28;;;;;;;21.60;15.82;;;;;;;18.00;100.00;99504.00;5050739;28;20415;-74
2022/06/10 03:47:56;;;;;;;21.92;14.50;;;;;;;18.09;100.00;99503.16;5051057;28;20045;-74
2022/06/10 03:50:28;;;;;;;18.95;13.95;;;;;;;18.06;100.00;99508.91;5050785;28;20101;-74
2022/06/10 03:52:56;;;;;;;21.05;13.45;;;;;;;17.99;100.00;99508.63;5052012;28;20055;-74
2022/06/10 03:55:24;;;;;;;17.77;13.98;;;;;;;17.87;100.00;99513.34;5050018;28;20047;-74
2022/06/10 03:57:51;;;;;;;20.80;14.75;;;;;;;17.78;100.00;99520.50;5063116;28;20053;-74
2022/06/10 04:00:22;;;;;;;20.35;16.08;;;;;;;18.11;100.00;99523.00;5053851;28;20061;-74
2022/06/10 04:02:50;;;;;;;23.25;17.30;;;;;;;18.20;100.00;99522.19;5052207;28;20045;-74
2022/06/10 04:05:18;;;;;;;22.25;17.27;;;;;;;18.00;100.00;99526.72;5050602;28;20499;-74
2022/06/10 04:07:47;;;;;;;22.52;17.10;;;;;;;18.09;100.00;99519.56;5050424;28;20147;-74
2022/06/10 04:10:21;;;;;;;22.38;17.35;;;;;;;18.28;100.00;99523.31;5050067;28;20055;-74
2022/06/10 04:12:48;;;;;;;24.95;17.92;;;;;;;18.28;100.00;99534.25;5051896;28;20084;-74
2022/06/10 04:15:17;;;;;;;23.38;17.85;;;;;;;18.22;100.00;99533.81;5050663;28;20044;-74
2022/06/10 04:17:44;;;;;;;29.83;23.85;;;;;;;18.19;100.00;99534.13;5064152;28;20411;-74
2022/06/10 04:20:16;;;;;;;26.17;20.45;;;;;;;18.20;100.00;99526.75;5070307;28;20131;-74
2022/06/10 04:22:44;;;;;;;24.25;18.90;;;;;;;18.44;100.00;99526.31;5071918;28;20050;-75
2022/06/10 04:25:13;;;;;;;26.05;22.35;;;;;;;18.46;100.00;99532.50;5069903;28;20571;-74
2022/06/10 04:27:41;;;;;;;25.45;20.42;;;;;;;18.63;100.00;99535.53;5070120;28;20148;-74
2022/06/10 04:30:12;;;;;;;24.25;19.38;;;;;;;18.76;100.00;99536.06;5070173;28;20045;-75
2022/06/10 04:32:39;;;;;;;23.63;18.20;;;;;;;18.80;100.00;99542.97;5070051;28;20502;-75
2022/06/10 04:35:08;;;;;;;21.88;17.65;;;;;;;19.09;100.00;99543.94;5066193;28;20079;-74
2022/06/10 04:37:35;;;;;;;25.00;17.42;;;;;;;19.29;100.00;99539.25;5066314;28;20048;-74
2022/06/10 04:40:03;;;;;;;22.45;17.17;;;;;;;19.31;100.00;99545.44;5060441;28;20132;-75
2022/06/10 04:42:32;;;;;;;21.10;16.60;;;;;;;19.36;100.00;99554.06;5055093;27;20155;-75
2022/06/10 04:45:00;;;;;;;19.15;14.48;;;;;;;19.46;100.00;99545.81;5055447;28;20097;-74
2022/06/10 04:47:28;;;;;;;19.98;14.85;;;;;;;19.64;100.00;99555.97;5055618;28;20045;-74
2022/06/10 04:49:59;;;;;;;18.92;14.25;;;;;;;19.79;100.00;99551.69;5057092;27;20357;-75
2022/06/10 04:52:27;;;;;;;20.45;14.70;;;;;;;19.73;100.00;99556.91;5054766;27;20552;-76
2022/06/10 04:54:55;;;;;;;22.58;16.13;;;;;;;19.96;100.00;99555.50;5055915;28;20049;-74
2022/06/10 04:57:23;;;;;;;19.92;15.07;;;;;;;20.08;100.00;99567.13;5056639;27;20566;-74
2022/06/10 04:59:52;;;;;;;21.88;14.80;;;;;;;20.06;100.00;99569.16;5054490;28;20060;-76
2022/06/10 05:02:20;;;;;;;18.50;14.82;;;;;;;19.98;100.00;99569.94;5055608;28;20154;-76
2022/06/10 05:04:47;;;;;;;22.80;14.70;;;;;;;19.94;100.00;99581.34;5054681;28;20041;-76
2022/06/10 05:07:15;;;;;;;19.92;15.18;;;;;;;20.04;100.00;99582.16;5055787;28;20071;-76
2022/06/10 05:09:42;;;;;;;19.85;14.88;;;;;;;20.05;100.00;99583.88;5063788;28;20071;-73
2022/06/10 05:12:10;;;;;;;233.23;183.75;;;;;;;20.35;100.00;99581.78;5069192;28;20123;-73
2022/06/10 05:14:38;;;;;;;31.20;22.90;;;;;;;20.37;100.00;99587.97;5068776;28;20487;-73
2022/06/10 05:17:07;;;;;;;24.55;17.80;;;;;;;20.36;100.00;99590.88;5069305;28;20051;-74
2022/06/10 05:19:35;;;;;;;20.25;16.88;;;;;;;20.37;100.00;99587.13;5069049;28;20578;-73
2022/06/10 05:22:04;;;;;;;24.70;17.30;;;;;;;20.36;100.00;99590.88;5069474;28;20541;-73
2022/06/10 05:24:31;;;;;;;23.02;18.33;;;;;;;20.39;100.00;99596.03;5069121;28;20053;-73
2022/06/10 05:26:59;;;;;;;23.10;18.45;;;;;;;20.20;100.00;99592.44;5069396;28;20044;-73
2022/06/10 05:29:27;;;;;;;26.25;18.45;;;;;;;20.12;100.00;99604.16;5069261;28;20444;-73
2022/06/10 05:31:55;;;;;;;21.58;17.10;;;;;;;20.22;100.00;99604.13;5069379;28;20125;-73
2022/06/10 05:37:08;;;;;;;23.83;17.75;;;;;;;20.38;100.00;99599.81;5069384;28;20106;-73
2022/06/10 05:39:36;;;;;;;24.25;18.60;;;;;;;20.38;100.00;99608.03;5065510;28;20041;-72
2022/06/10 05:42:07;;;;;;;23.23;18.42;;;;;;;20.36;100.00;99615.56;5049446;28;20041;-72
2022/06/10 05:44:37;;;;;;;24.10;18.77;;;;;;;20.35;100.00;99617.41;5052030;28;20049;-74
2022/06/10 05:47:07;;;;;;;21.63;17.85;;;;;;;20.36;100.00;99616.41;5052654;28;20124;-73
2022/06/10 05:49:37;;;;;;;25.73;18.23;;;;;;;20.43;100.00;99619.38;5052706;28;20045;-73
2022/06/10 05:52:06;;;;;;;21.40;17.23;;;;;;;20.63;100.00;99624.75;5054081;28;20044;-73
2022/06/10 05:54:35;;;;;;;22.60;18.10;;;;;;;20.64;100.00;99629.22;5052664;27;20128;-73
2022/06/10 05:57:03;;;;;;;25.30;18.95;;;;;;;20.55;100.00;99631.00;5052516;27;20052;-73
2022/06/10 05:59:33;;;;;;;24.33;17.92;;;;;;;20.35;100.00;99627.53;5061044;28;20049;-72
2022/06/10 06:02:01;;;;;;;23.45;18.50;;;;;;;20.49;100.00;99629.75;5072605;28;20395;-73
2022/06/10 06:04:29;;;;;;;23.20;18.23;;;;;;;20.51;100.00;99627.69;5072522;28;20044;-73
2022/06/10 06:06:58;;;;;;;25.58;18.63;;;;;;;20.48;100.00;99636.25;5070224;28;20060;-72
2022/06/10 06:09:26;;;;;;;24.52;18.17;;;;;;;20.52;100.00;99632.16;5068906;28;20328;-73
2022/06/10 06:11:56;;;;;;;24.52;18.85;;;;;;;20.46;100.00;99629.19;5068329;28;20514;-73
2022/06/10 06:14:27;;;;;;;25.70;18.70;;;;;;;20.52;100.00;99639.53;5068468;28;20056;-72
2022/06/10 06:16:56;;;;;;;22.48;19.08;;;;;;;20.52;100.00;99637.66;5068605;28;20128;-73
2022/06/10 06:19:24;;;;;;;27.27;18.38;;;;;;;20.55;100.00;99644.72;5068561;28;20140;-72
2022/06/10 06:21:52;;;;;;;23.00;18.70;;;;;;;20.70;100.00;99640.41;5068149;28;20044;-73
2022/06/10 06:24:22;;;;;;;21.80;18.38;;;;;;;20.86;100.00;99648.97;5068376;28;20135;-72
2022/06/10 06:26:49;;;;;;;22.95;18.30;;;;;;;20.77;100.00;99646.13;5069769;28;20072;-73
2022/06/10 06:29:17;;;;;;;24.98;19.27;;;;;;;20.93;100.00;99652.81;5064807;28;20051;-73
2022/06/10 06:31:45;;;;;;;23.98;19.75;;;;;;;21.02;100.00;99654.63;5059971;28;20494;-73
2022/06/10 06:34:13;;;;;;;22.95;19.00;;;;;;;20.98;100.00;99653.19;5059942;28;20045;-82
2022/06/10 06:36:44;;;;;;;24.30;19.92;;;;;;;20.86;100.00;99646.22;5058569;28;20041;-76
2022/06/10 06:39:13;;;;;;;25.48;19.67;;;;;;;20.87;100.00;99656.19;5059508;28;20047;-77
2022/06/10 06:41:42;;;;;;;25.58;19.80;;;;;;;20.99;100.00;99654.91;5061652;27;20113;-75
2022/06/10 06:44:10;;;;;;;29.15;19.88;;;;;;;21.03;100.00;99656.34;5055257;27;20384;-75
2022/06/10 06:46:39;;;;;;;23.73;18.75;;;;;;;21.16;100.00;99663.28;5065939;28;20120;-75
2022/06/10 06:49:08;;;;;;;26.85;19.60;;;;;;;21.20;100.00;99667.44;5060093;27;20151;-79
2022/06/10 06:51:38;;;;;;;23.27;19.60;;;;;;;21.24;100.00;99668.84;5059613;27;20049;-78
2022/06/10 06:54:06;;;;;;;24.88;19.42;;;;;;;21.25;100.00;99665.94;5059652;28;20060;-77
2022/06/10 06:56:34;;;;;;;24.70;18.83;;;;;;;21.34;100.00;99666.84;5058580;28;20037;-78
2022/06/10 06:59:03;;;;;;;24.80;19.45;;;;;;;21.29;100.00;99671.97;5059512;27;20041;-79
2022/06/10 07:01:31;;;;;;;24.77;19.38;;;;;;;21.39;100.00;99669.13;5060419;28;20057;-78
2022/06/10 07:03:59;;;;;;;22.75;19.42;;;;;;;21.43;100.00;99670.53;5058864;28;20037;-79
2022/06/10 07:06:27;;;;;;;26.38;19.08;;;;;;;21.44;100.00;99672.25;5058811;28;20434;-78
2022/06/10 07:08:55;;;;;;;22.77;17.95;;;;;;;21.60;100.00;99673.38;5060646;27;20127;-78
2022/06/10 07:11:23;;;;;;;21.27;17.30;;;;;;;21.65;100.00;99673.78;5059167;28;20088;-77
2022/06/10 07:13:50;;;;;;;20.35;16.27;;;;;;;21.83;100.00;99677.31;5061391;28;20133;-77
2022/06/10 07:16:19;;;;;;;20.40;17.02;;;;;;;21.90;100.00;99677.53;5059666;28;20044;-77
2022/06/10 07:18:47;;;;;;;22.80;18.33;;;;;;;21.93;100.00;99682.69;5059341;28;20089;-76
2022/06/10 07:21:15;;;;;;;23.55;18.98;;;;;;;21.86;100.00;99687.13;5061414;28;20047;-77
2022/06/10 07:23:43;;;;;;;23.75;17.05;;;;;;;22.14;100.00;99684.16;5060451;28;20064;-77
2022/06/10 07:26:10;;;;;;;19.92;16.48;;;;;;;22.18;100.00;99685.53;5059693;28;20037;-78
2022/06/10 07:28:39;;;;;;;20.90;16.52;;;;;;;22.28;100.00;99683.53;5059803;27;20051;-77
2022/06/10 07:31:06;;;;;;;20.23;16.17;;;;;;;22.33;100.00;99682.16;5059357;27;20060;-77
2022/06/10 07:33:36;;;;;;;19.30;15.10;;;;;;;22.42;100.00;99682.00;5060281;27;20086;-79
2022/06/10 07:36:05;;;;;;;19.70;14.80;;;;;;;22.39;100.00;99676.00;5050770;28;20049;-79
2022/06/10 07:38:32;;;;;;;21.58;16.05;;;;;;;22.41;100.00;99679.44;5054819;27;20081;-79
2022/06/10 07:43:45;;;;;;;21.25;14.07;;;;;;;22.86;100.00;99682.84;5071212;28;20055;-78
2022/06/10 07:46:15;;;;;;;17.25;13.77;;;;;;;22.92;100.00;99687.66;5070575;28;20056;-77
2022/06/10 07:48:44;;;;;;;20.35;12.70;;;;;;;23.04;99.41;99679.06;5070484;28;20044;-78
2022/06/10 07:51:12;;;;;;;17.27;12.40;;;;;;;23.01;97.95;99686.63;5070910;28;20055;-79
2022/06/10 07:53:41;;;;;;;16.48;11.68;;;;;;;23.19;98.50;99690.25;5070692;28;20050;-79
2022/06/10 07:56:10;;;;;;;14.95;11.55;;;;;;;23.29;98.03;99688.19;5070575;28;20048;-79
2022/06/10 07:58:37;;;;;;;15.85;12.00;;;;;;;23.35;97.69;99687.50;5069448;28;20394;-79
2022/06/10 08:01:05;;;;;;;17.98;12.23;;;;;;;23.29;97.22;99693.72;5050602;27;20045;-76
2022/06/10 08:03:33;;;;;;;15.93;11.77;;;;;;;23.25;97.23;99690.47;5048387;28;20084;-75
2022/06/10 08:06:02;;;;;;;16.20;11.43;;;;;;;23.34;95.40;99690.44;5046690;28;20061;-76
2022/06/10 08:08:31;;;;;;;15.02;10.60;;;;;;;23.53;95.61;99694.72;5046604;28;20053;-75
2022/06/10 08:10:59;;;;;;;18.85;10.43;;;;;;;23.63;94.86;99694.50;5046879;28;20132;-75
2022/06/10 08:13:27;;;;;;;17.70;11.35;;;;;;;23.44;94.11;99700.22;5046944;28;20049;-76
2022/06/10 08:15:55;;;;;;;13.88;10.07;;;;;;;23.42;93.49;99704.22;5047067;28;20045;-75
2022/06/10 08:18:23;;;;;;;17.60;10.27;;;;;;;23.34;90.50;99702.31;5046557;28;20048;-76
2022/06/10 08:23:41;;;;;;;14.73;10.32;;;;;;;23.53;89.13;99716.78;5068081;28;20044;-76
2022/06/10 08:26:09;;;;;;;15.52;10.13;;;;;;;23.58;88.51;99712.44;5068367;27;20052;-76
2022/06/10 08:28:38;;;;;;;16.25;10.80;;;;;;;23.72;87.55;99701.75;5066719;28;20051;-76
2022/06/10 08:31:06;;;;;;;16.77;11.25;;;;;;;23.93;88.75;99709.44;5066276;28;20131;-75
2022/06/10 08:33:35;;;;;;;17.27;12.38;;;;;;;23.97;89.86;99708.06;5066347;28;20498;-76
2022/06/10 08:36:03;;;;;;;16.70;12.27;;;;;;;24.07;92.88;99713.41;5066517;28;20402;-76
2022/06/10 08:38:32;;;;;;;16.33;11.77;;;;;;;24.13;92.39;99718.22;5062245;28;20056;-75
2022/06/10 08:41:04;;;;;;;15.07;11.77;;;;;;;23.94;92.53;99713.06;5052035;28;20049;-75
2022/06/10 08:43:42;;;;;;;15.68;11.05;;;;;;;23.93;92.11;99712.22;5060275;27;20049;-74
2022/06/10 08:46:20;;;;;;;18.80;10.45;;;;;;;24.00;92.48;99721.53;5059336;28;20483;-75
2022/06/10 08:49:07;;;;;;;16.40;11.40;;;;;;;24.08;92.34;99714.25;5058112;27;20480;-75
2022/06/10 08:51:38;;;;;;;15.07;10.90;;;;;;;24.03;91.16;99717.53;5057852;27;20051;-76
2022/06/10 08:54:15;;;;;;;14.20;10.10;;;;;;;24.16;91.47;99716.97;5056974;27;20445;-74
2022/06/10 08:56:46;;;;;;;16.65;10.88;;;;;;;24.25;91.70;99715.91;5050992;27;20033;-75
2022/06/10 08:59:21;;;;;;;19.30;10.48;;;;;;;24.41;90.37;99716.88;5055666;27;20170;-74
2022/06/10 09:01:53;;;;;;;16.20;10.77;;;;;;;24.41;89.87;99714.13;5069657;28;20044;-74
2022/06/10 09:04:30;;;;;;;17.05;11.73;;;;;;;24.48;90.36;99715.13;5061623;27;20534;-74
2022/06/10 09:07:02;;;;;;;16.63;11.13;;;;;;;24.38;91.12;99720.00;5057786;28;20053;-74
2022/06/10 09:09:32;;;;;;;17.85;11.57;;;;;;;24.48;90.60;99719.75;5056069;28;20119;-74
2022/06/10 09:12:05;;;;;;;15.70;11.23;;;;;;;24.44;90.55;99713.75;5058397;28;20044;-74
2022/06/10 09:14:33;;;;;;;16.00;12.35;;;;;;;24.44;91.68;99722.03;5058771;28;20047;-74
2022/06/10 09:17:07;;;;;;;15.35;11.85;;;;;;;24.62;91.27;99716.25;5058011;28;20037;-74
2022/06/10 09:19:41;;;;;;;17.95;11.68;;;;;;;24.59;91.47;99722.97;5060772;28;20128;-74
2022/06/10 09:22:14;;;;;;;17.48;11.80;;;;;;;24.59;91.31;99717.47;5062247;28;20519;-74
2022/06/10 09:24:45;;;;;;;16.83;12.52;;;;;;;24.59;91.87;99724.91;5063171;28;20112;-74
2022/06/10 09:27:20;;;;;;;18.17;11.82;;;;;;;24.68;91.74;99720.16;5062898;28;20043;-74
2022/06/10 09:29:48;;;;;;;17.27;11.77;;;;;;;24.70;91.11;99726.41;5062169;28;20040;-74
2022/06/10 09:32:22;;;;;;;16.77;11.02;;;;;;;24.77;90.98;99715.50;5060763;28;20703;-73
2022/06/10 09:34:57;;;;;;;15.73;12.10;;;;;;;24.78;89.39;99722.75;5061658;28;20120;-74
2022/06/10 09:37:32;;;;;;;22.27;13.60;;;;;;;24.90;90.46;99735.09;5062375;28;20052;-74
2022/06/10 09:43:10;;;;;;;17.17;11.35;;;;;;;25.01;89.66;99725.50;5061586;28;20044;-76
2022/06/10 09:45:41;;;;;;;16.48;10.90;;;;;;;24.97;88.30;99733.31;5062193;27;20492;-75
2022/06/10 09:48:19;;;;;;;14.57;10.23;;;;;;;25.08;86.65;99726.50;5064948;28;20491;-75
2022/06/10 09:50:53;;;;;;;15.95;9.35;;;;;;;25.08;85.17;99728.41;5062307;28;20040;-76
2022/06/10 09:53:42;;;;;;;13.20;9.32;;;;;;;25.23;83.81;99734.84;5065062;27;20056;-77
2022/06/10 09:56:36;;;;;;;15.07;11.25;;;;;;;25.24;84.45;99732.94;5061796;27;20068;-77
2022/06/10 09:59:16;;;;;;;16.13;11.57;;;;;;;25.27;86.32;99738.94;5063882;28;20037;-78
2022/06/10 10:01:49;;;;;;;16.63;12.15;;;;;;;25.25;86.47;99737.44;5062314;28;20066;-76
2022/06/10 10:04:30;;;;;;;16.83;12.38;;;;;;;25.28;87.79;99731.53;5060737;28;20045;-78
2022/06/10 10:07:03;;;;;;;16.77;11.82;;;;;;;25.28;87.92;99737.06;5061239;28;20056;-78
2022/06/10 10:09:43;;;;;;;21.58;12.57;;;;;;;25.35;88.56;99738.03;5061477;28;20120;-76
2022/06/10 10:12:19;;;;;;;17.83;12.48;;;;;;;25.34;88.59;99741.84;5060496;27;20119;-75
2022/06/10 10:14:56;;;;;;;17.83;12.23;;;;;;;25.39;88.01;99741.28;5066086;28;20428;-76
2022/06/10 10:17:46;;;;;;;15.20;11.50;;;;;;;25.59;89.29;99742.50;5063649;27;20120;-76
2022/06/10 10:20:21;;;;;;;15.65;12.18;;;;;;;25.56;87.98;99745.66;5064678;27;20041;-77
2022/06/10 10:23:09;;;;;;;16.20;11.50;;;;;;;25.70;87.61;99749.50;5062936;28;20451;-76
2022/06/10 10:25:39;;;;;;;17.83;11.85;;;;;;;25.63;87.12;99744.91;5071397;28;20054;-77
2022/06/10 10:28:16;;;;;;;17.23;11.45;;;;;;;25.65;86.52;99746.44;5073498;28;20461;-77
2022/06/10 10:30:48;;;;;;;14.55;10.32;;;;;;;25.67;85.59;99752.63;5073874;28;20045;-77
2022/06/10 10:33:16;;;;;;;17.38;11.02;;;;;;;25.74;84.92;99747.22;5061947;28;20467;-78
2022/06/10 10:35:48;;;;;;;14.80;10.45;;;;;;;25.70;83.84;99752.25;5049046;28;20050;-74
2022/06/10 10:38:30;;;;;;;15.40;10.50;;;;;;;25.74;84.37;99750.84;5051269;28;20145;-74
2022/06/10 10:40:58;;;;;;;15.77;10.35;;;;;;;25.80;84.45;99749.25;5054747;27;20055;-73
2022/06/10 10:43:28;;;;;;;14.57;10.90;;;;;;;25.90;84.45;99746.16;5058325;27;20582;-73
2022/06/10 10:45:59;;;;;;;15.55;10.55;;;;;;;25.96;84.57;99745.44;5050024;28;20578;-73
2022/06/10 10:48:30;;;;;;;14.98;10.40;;;;;;;26.06;83.80;99744.28;5056882;28;20041;-74
2022/06/10 10:51:01;;;;;;;15.07;10.63;;;;;;;26.13;83.27;99750.78;5071181;28;20040;-73
2022/06/10 10:53:34;;;;;;;16.15;9.95;;;;;;;26.20;81.44;99751.75;5065921;28;20037;-73
2022/06/10 10:56:02;;;;;;;15.85;10.70;;;;;;;26.15;80.04;99744.03;5052554;27;20145;-73
2022/06/10 10:58:33;;;;;;;13.75;10.07;;;;;;;26.13;78.90;99748.00;5055130;27;20449;-73
2022/06/10 11:01:04;;;;;;;13.77;10.10;;;;;;;26.12;80.02;99743.53;5062896;27;20055;-74
2022/06/10 11:03:34;;;;;;;15.05;9.88;;;;;;;26.26;80.12;99744.59;5054378;28;20045;-73
2022/06/10 11:06:04;;;;;;;23.48;10.40;;;;;;;26.36;79.23;99742.41;5051574;27;20132;-73
2022/06/10 11:08:34;;;;;;;17.42;10.05;;;;;;;26.42;77.78;99743.53;5052131;27;20560;-74
2022/06/10 11:11:21;;;;;;;15.73;10.20;;;;;;;26.34;78.38;99736.19;5051879;27;20051;-73
2022/06/10 11:13:52;;;;;;;18.20;10.63;;;;;;;26.47;79.18;99741.06;5051985;28;20045;-73
2022/06/10 11:16:36;;;;;;;16.27;11.25;;;;;;;26.40;79.76;99735.41;5052199;27;20055;-74
2022/06/10 11:19:16;;;;;;;18.17;11.15;;;;;;;26.61;80.41;99731.84;5051875;28;20045;-73
2022/06/10 11:21:53;;;;;;;15.80;10.80;;;;;;;26.71;79.30;99736.22;5051645;28;20048;-73
2022/06/10 11:24:25;;;;;;;15.75;11.05;;;;;;;26.60;78.87;99738.44;5052327;28;20049;-74
2022/06/10 11:26:55;;;;;;;18.17;10.88;;;;;;;26.59;78.56;99739.50;5050759;28;20042;-73
2022/06/10 11:29:23;;;;;;;16.77;10.93;;;;;;;26.59;78.16;99739.50;5051175;28;20068;-73
2022/06/10 11:31:55;;;;;;;20.05;12.10;;;;;;;26.69;80.23;99743.88;5051263;28;20049;-73
2022/06/10 11:34:27;;;;;;;16.40;12.20;;;;;;;26.60;80.68;99724.59;5052019;28;20488;-73
2022/06/10 11:36:55;;;;;;;15.77;11.20;;;;;;;26.94;80.63;99738.88;5052308;28;20045;-73
2022/06/10 11:39:25;;;;;;;17.25;12.90;;;;;;;26.89;80.58;99733.91;5050579;28;20448;-77
2022/06/10 11:42:08;;;;;;;17.55;12.88;;;;;;;26.93;81.39;99733.53;5050370;27;20045;-76
2022/06/10 11:44:42;;;;;;;17.27;13.27;;;;;;;26.90;81.91;99735.63;5051288;27;20052;-78
2022/06/10 11:47:19;;;;;;;16.58;12.40;;;;;;;27.11;82.24;99736.69;5051486;27;20041;-79